Portada
METAR-TAF:

METAR-TAF

Aeropuertos :

Orange, Francia

latitud: 44-08N, longitud: 004-50E, altitud: 60 m

Observación

El informe se hizo hace 11 minutos, a las 00:00 UTC
Viento calma
Temperatura 21°C
Humedad 94%
Presión 1018 hPa
Visibilidad 10 km o más
sin nubes por debajo de 1500 m y sin presencia de cumulonimbus.

METAR: LFMO 090000Z AUTO 00000KT CAVOK 21/20 Q1018 TEMPO 4000 BR

Hora: 02:11 (00:11 UTC)

Pronóstico

El informe se hizo hace 4 horas y 11 minutos, a las 20:00 UTC
Pronóstico válido del 08 a las 21 UTC al 09 a las 21 UTC
Viento 3 kt con dirección variable
Visibilidad 10 km o más
sin nubes por debajo de 1500 m y sin presencia de cumulonimbus.
Temporalmente
del 09 a las 00 UTC al 09 a las 06 UTC
Visibilidad: 4000 m
neblina

TAF: LFMO 082000Z 0821/0921 VRB03KT CAVOK TEMPO 0900/0906 4000 BR

Observaciones y pronósticos meteorológicos de más de 4000 aeropuertos (mensajes METAR y TAF).

Los puntos amarillos y rojos representan las estaciones disponibles.

Ponga el ratón en el punto deseado para ver el nombre de la estación.

Haga clic para ver las observaciones y los pronósticos meteorológicos.

Para cambiar el mapa : haga clic en los botones verdes con una cruz de color negro para hacer un zoom, en el botón verde con un guión para alejar o en las flechas verdes para mapas adyacentes.


METAR-TAF: